Ghent, NY (12075)

2:31 AM EST on February 23, 2017 (GMT -0500)
MK1B1 | | Change Station

Elev 196 ft 42.29 °N, 73.71 °W | Updated 14 days ago

Overcast
Overcast
45.0 °F
Feels Like 38 °F
N
16.0
Wind Variable Wind from North
Gusts 21.0 mph

Today
High -- | Low -- °F
--% Chance of Precip.
Yesterday
High -- | Low -- °F
Precip. -- in
Pressure 29.85 in
Visibility 9.0 miles
Clouds Few 4800 ft
Overcast 6000 ft
Windchill 38 °F
Dew Point 37 °F
Humidity 75%
Rainfall 0.00 in
Snow Depth Not available.
6:38 AM 5:37 PM
Waning Crescent, 12% visible
METAR KPSF 230654Z AUTO 00000KT 9SM FEW048 OVC060 02/00 A2985 RMK AO2 SLP106 T00170000
Pressure 29.85 in
Visibility 9.0 miles
Clouds Few 4800 ft
Overcast 6000 ft
Windchill 38 °F
Dew Point 37 °F
Humidity 75%
Rainfall 0.00 in
Snow Depth Not available.
6:38 AM 5:37 PM
Waning Crescent, 12% visible
METAR KPSF 230654Z AUTO 00000KT 9SM FEW048 OVC060 02/00 A2985 RMK AO2 SLP106 T00170000

Get Your Daily Forecast Email!

Thanks for signing up!

Be on the lookout for a verification email in your inbox.

You'll start receiving the daily forecast at 8 AM.

×

10-Day Weather Forecast

Almanac

Astronomy

Feb. 23, 2017 Rise Set
Actual Time
Civil Twilight
Nautical Twilight
Astronomical Twilight
Moon
Length of Visible Light
Length of Day
Tomorrow will be .
, % of the Moon is Illuminated

Today's Extremes

State Highs State Lows

Community

WunderPhotos

Upload Photos

1,962,540 photos uploaded!

WunderBlog® & News

Nearby

Air Quality

  Air Quality AQ Index Pollutant
Not available.

Snow Depth

Station Depth Elevation

Earthquake Activity

City Distance Mag. Time & Date
Minimum magnitude displayed is 2.5.

Coastal Water Temperatures

Place Temperature

Stations

Nearby Weather Stations

Station Location Temp. Windchill Dew Point Humidity Wind Precip. Elev Updated Type
                   

Watches & Warnings

There are currently no watches in effect.